createdAt,value
2019-04-03T00:00:04.490Z,8.5
2019-04-03T00:05:04.509Z,8.6
2019-04-03T00:10:02.543Z,8.5
2019-04-03T00:15:03.141Z,8.5
2019-04-03T00:20:02.612Z,8.5
2019-04-03T00:25:03.020Z,8.3
2019-04-03T00:30:02.645Z,8.3
2019-04-03T00:35:02.978Z,8.0
2019-04-03T00:40:02.441Z,7.9
2019-04-03T00:45:02.850Z,7.9
2019-04-03T00:50:03.479Z,7.9
2019-04-03T00:55:02.997Z,7.6
2019-04-03T01:00:02.338Z,7.6
2019-04-03T01:05:03.014Z,7.5
2019-04-03T01:10:02.563Z,7.5
2019-04-03T01:15:02.984Z,7.4
2019-04-03T01:20:02.354Z,7.4
2019-04-03T01:25:03.033Z,7.1
2019-04-03T01:30:02.347Z,7.1
2019-04-03T01:35:02.712Z,7.1
2019-04-03T01:40:03.250Z,7.1
2019-04-03T01:45:02.668Z,7.1
2019-04-03T01:50:03.077Z,7.1
2019-04-03T01:55:04.271Z,7.0
2019-04-03T02:00:02.825Z,6.9
2019-04-03T02:05:03.183Z,6.9
2019-04-03T02:10:02.659Z,6.9
2019-04-03T02:15:03.042Z,6.9
2019-04-03T02:20:02.420Z,6.6
2019-04-03T02:25:02.991Z,6.6
2019-04-03T02:30:02.468Z,6.6
2019-04-03T02:35:06.992Z,6.6
2019-04-03T02:40:03.265Z,6.6
2019-04-03T02:45:02.675Z,6.6
2019-04-03T02:50:03.068Z,6.5
2019-04-03T02:55:04.604Z,6.5
2019-04-03T03:00:02.623Z,6.5
2019-04-03T03:05:03.325Z,6.5
2019-04-03T03:10:02.795Z,6.5
2019-04-03T03:15:03.171Z,6.5
2019-04-03T03:20:05.492Z,6.5
2019-04-03T03:25:02.698Z,6.5
2019-04-03T03:30:27.737Z,6.4
2019-04-03T03:35:12.415Z,6.5
2019-04-03T03:40:02.377Z,6.5
2019-04-03T03:45:02.821Z,6.4
2019-04-03T03:50:02.815Z,6.4
2019-04-03T03:55:03.213Z,6.4
2019-04-03T04:00:02.623Z,6.4
2019-04-03T04:05:02.957Z,6.4
2019-04-03T04:10:02.479Z,6.4
2019-04-03T04:15:03.126Z,6.4
2019-04-03T04:20:05.095Z,6.4
2019-04-03T04:25:03.100Z,6.4
2019-04-03T04:30:03.334Z,6.1
2019-04-03T04:35:02.668Z,6.4
2019-04-03T04:40:03.347Z,6.4
2019-04-03T04:45:02.825Z,6.4
2019-04-03T04:50:03.190Z,6.4
2019-04-03T04:55:02.873Z,6.4
2019-04-03T05:00:03.354Z,6.4
2019-04-03T05:05:02.957Z,6.4
2019-04-03T05:10:02.367Z,6.4
2019-04-03T05:15:02.192Z,6.4
2019-04-03T05:20:02.638Z,6.5
2019-04-03T05:25:02.987Z,6.5
2019-04-03T05:30:05.219Z,6.4
2019-04-03T05:35:03.087Z,6.5
2019-04-03T05:40:02.577Z,6.5
2019-04-03T05:45:04.548Z,6.4
2019-04-03T05:50:03.495Z,6.4
2019-04-03T05:55:02.881Z,6.6
2019-04-03T06:00:06.253Z,6.6
2019-04-03T06:05:06.278Z,6.6
2019-04-03T06:10:02.817Z,6.9
2019-04-03T06:15:03.225Z,6.9
2019-04-03T06:20:02.634Z,7.0
2019-04-03T06:25:03.387Z,6.9
2019-04-03T06:30:02.952Z,7.0
2019-04-03T06:35:03.355Z,7.0
2019-04-03T06:40:03.841Z,7.0
2019-04-03T06:45:03.316Z,7.0
2019-04-03T06:50:02.735Z,7.1
2019-04-03T06:55:04.000Z,7.1
2019-04-03T07:00:02.489Z,7.0
2019-04-03T07:05:03.022Z,7.0
2019-04-03T07:10:04.237Z,7.0
2019-04-03T07:15:03.116Z,7.1
2019-04-03T07:20:12.643Z,7.0
2019-04-03T07:25:03.559Z,6.9
2019-04-03T07:30:03.592Z,7.0
2019-04-03T07:35:06.329Z,6.9
2019-04-03T07:40:02.759Z,7.1
2019-04-03T07:45:03.059Z,7.1
2019-04-03T07:50:02.539Z,7.4
2019-04-03T07:55:03.272Z,7.5
2019-04-03T08:00:06.163Z,7.1
2019-04-03T08:05:02.544Z,7.4
2019-04-03T08:10:03.345Z,7.5
2019-04-03T08:15:02.731Z,7.9
2019-04-03T08:20:03.176Z,7.9
2019-04-03T08:25:02.501Z,7.6
2019-04-03T08:30:02.931Z,7.5
2019-04-03T08:35:04.514Z,7.5
2019-04-03T08:40:03.036Z,7.9
2019-04-03T08:45:05.754Z,8.1
2019-04-03T08:50:07.261Z,8.1
2019-04-03T08:55:02.978Z,7.9
2019-04-03T09:00:02.306Z,8.1
2019-04-03T09:05:02.730Z,7.6
2019-04-03T09:10:03.264Z,7.5
2019-04-03T09:15:02.696Z,7.5
2019-04-03T09:20:03.141Z,7.4
2019-04-03T09:25:02.455Z,7.4
2019-04-03T09:30:02.945Z,7.4
2019-04-03T09:35:03.343Z,7.5
2019-04-03T09:40:02.889Z,7.4
2019-04-03T09:45:03.231Z,7.5
2019-04-03T09:50:02.633Z,7.5
2019-04-03T09:55:03.063Z,7.6
2019-04-03T10:00:02.493Z,7.9
2019-04-03T10:05:03.160Z,8.1
2019-04-03T10:10:02.782Z,7.9
2019-04-03T10:15:03.206Z,8.0
2019-04-03T10:20:06.774Z,8.0
2019-04-03T10:25:05.462Z,8.0
2019-04-03T10:30:02.986Z,8.6
2019-04-03T10:35:02.459Z,8.3
2019-04-03T10:40:07.043Z,8.5
2019-04-03T10:45:02.367Z,8.1
2019-04-03T10:50:04.862Z,8.1
2019-04-03T10:55:02.716Z,7.9
2019-04-03T11:00:03.232Z,8.0
2019-04-03T11:05:02.944Z,7.9
2019-04-03T11:10:03.143Z,8.0
2019-04-03T11:15:02.828Z,8.0
2019-04-03T11:20:03.241Z,7.9
2019-04-03T11:25:03.018Z,8.0
2019-04-03T11:30:02.420Z,8.1
2019-04-03T11:35:02.867Z,7.9
2019-04-03T11:40:04.870Z,8.0
2019-04-03T11:45:04.781Z,8.3
2019-04-03T11:50:02.440Z,8.3
2019-04-03T11:55:02.843Z,8.0
2019-04-03T12:00:03.255Z,8.3
2019-04-03T12:05:02.627Z,8.3
2019-04-03T12:10:04.221Z,8.6
2019-04-03T12:15:02.671Z,9.0
2019-04-03T12:20:03.191Z,8.8
2019-04-03T12:25:02.804Z,9.0
2019-04-03T12:30:03.194Z,8.8
2019-04-03T12:35:02.641Z,9.1
2019-04-03T12:40:03.053Z,9.1
2019-04-03T12:45:02.465Z,9.1
2019-04-03T12:50:03.064Z,9.6
2019-04-03T12:55:02.470Z,10.1
2019-04-03T13:00:02.909Z,9.8
2019-04-03T13:05:05.641Z,10.1
2019-04-03T13:10:04.647Z,10.6
2019-04-03T13:15:05.180Z,10.5
2019-04-03T13:20:05.099Z,10.8
2019-04-03T13:25:03.253Z,10.8
2019-04-03T13:30:02.699Z,10.8
2019-04-03T13:35:04.878Z,10.8
2019-04-03T13:40:05.661Z,10.6
2019-04-03T13:45:02.952Z,10.8
2019-04-03T13:50:03.578Z,10.1
2019-04-03T13:55:03.300Z,10.1
2019-04-03T14:00:16.313Z,10.1
2019-04-03T14:05:02.945Z,10.3
2019-04-03T14:10:02.426Z,10.1
2019-04-03T14:15:04.354Z,10.1
2019-04-03T14:20:02.938Z,10.5
2019-04-03T14:25:02.452Z,10.1
2019-04-03T14:30:03.024Z,10.3
2019-04-03T14:35:10.987Z,10.6
2019-04-03T14:40:03.359Z,10.1
2019-04-03T14:45:02.439Z,10.0
2019-04-03T14:50:05.064Z,10.0
2019-04-03T14:55:16.422Z,10.1
2019-04-03T15:00:16.144Z,10.1
2019-04-03T15:05:02.656Z,10.1
2019-04-03T15:10:03.168Z,10.1
2019-04-03T15:15:02.608Z,10.1
2019-04-03T15:20:03.027Z,10.0
2019-04-03T15:25:03.043Z,10.0
2019-04-03T15:30:02.744Z,10.0
2019-04-03T15:35:03.173Z,10.0
2019-04-03T15:40:02.612Z,9.6
2019-04-03T15:45:03.210Z,10.0
2019-04-03T15:50:03.183Z,9.8
2019-04-03T15:55:04.077Z,9.6
2019-04-03T16:00:03.629Z,9.6
2019-04-03T16:05:03.081Z,9.8
2019-04-03T16:10:02.761Z,9.6
2019-04-03T16:15:03.175Z,9.6
2019-04-03T16:20:03.032Z,9.6
2019-04-03T16:25:02.513Z,9.6
2019-04-03T16:30:02.945Z,9.8
2019-04-03T16:35:03.658Z,9.6
2019-04-03T16:40:05.017Z,9.5
2019-04-03T16:45:04.756Z,9.5
2019-04-03T16:50:02.363Z,9.5
2019-04-03T16:55:03.236Z,9.3
2019-04-03T17:00:02.653Z,9.3
2019-04-03T17:05:03.080Z,9.3
2019-04-03T17:10:02.502Z,9.1
2019-04-03T17:15:02.044Z,9.0
2019-04-03T17:20:02.461Z,9.0
2019-04-03T17:25:02.799Z,9.1
2019-04-03T17:30:03.173Z,9.0
2019-04-03T17:35:02.837Z,9.0
2019-04-03T17:40:04.073Z,8.8
2019-04-03T17:45:03.344Z,8.6
2019-04-03T17:50:02.779Z,8.6
2019-04-03T17:55:03.210Z,8.5
2019-04-03T18:00:02.616Z,8.5
2019-04-03T18:05:02.985Z,8.5
2019-04-03T18:10:02.486Z,8.5
2019-04-03T18:15:02.939Z,8.3
2019-04-03T18:20:03.385Z,8.3
2019-04-03T18:25:02.787Z,8.3
2019-04-03T18:30:03.135Z,8.3
2019-04-03T18:35:02.582Z,8.1
2019-04-03T18:40:03.103Z,8.1
2019-04-03T18:45:02.557Z,8.1
2019-04-03T18:50:03.548Z,8.1
2019-04-03T18:55:03.201Z,8.0
2019-04-03T19:00:02.523Z,8.0
2019-04-03T19:05:02.853Z,8.0
2019-04-03T19:10:07.346Z,8.0
2019-04-03T19:15:03.465Z,8.0
2019-04-03T19:20:10.159Z,8.0
2019-04-03T19:25:03.303Z,8.0
2019-04-03T19:30:02.725Z,8.0
2019-04-03T19:35:03.088Z,8.0
2019-04-03T19:40:02.476Z,8.0
2019-04-03T19:45:02.059Z,8.0
2019-04-03T19:50:02.566Z,8.0
2019-04-03T19:55:03.005Z,8.1
2019-04-03T20:00:03.063Z,8.1
2019-04-03T20:05:03.155Z,8.1
2019-04-03T20:10:03.297Z,7.9
2019-04-03T20:15:03.131Z,7.9
2019-04-03T20:20:02.566Z,7.9
2019-04-03T20:25:02.982Z,7.9
2019-04-03T20:30:02.412Z,7.6
2019-04-03T20:35:02.754Z,7.9
2019-04-03T20:40:03.195Z,7.9
2019-04-03T20:45:02.597Z,7.6
2019-04-03T20:50:02.963Z,7.5
2019-04-03T20:55:03.407Z,7.4
2019-04-03T21:00:03.478Z,7.5
2019-04-03T21:05:03.064Z,7.5
2019-04-03T21:10:02.479Z,7.5
2019-04-03T21:15:08.755Z,7.9
2019-04-03T21:20:02.541Z,7.6
2019-04-03T21:25:04.999Z,7.6
2019-04-03T21:30:02.707Z,7.5
2019-04-03T21:35:04.123Z,7.5
2019-04-03T21:40:04.855Z,7.4
2019-04-03T21:45:04.951Z,7.4
2019-04-03T21:50:03.757Z,7.4
2019-04-03T21:55:04.699Z,7.1
2019-04-03T22:00:02.407Z,7.1
2019-04-03T22:05:02.771Z,7.0
2019-04-03T22:10:03.187Z,7.0
2019-04-03T22:15:02.655Z,7.0
2019-04-03T22:20:02.199Z,6.9
2019-04-03T22:25:02.573Z,6.9
2019-04-03T22:30:02.913Z,6.6
2019-04-03T22:35:03.380Z,6.6
2019-04-03T22:40:02.861Z,6.6
2019-04-03T22:45:03.236Z,6.6
2019-04-03T22:50:04.929Z,6.5
2019-04-03T22:55:02.877Z,6.6
2019-04-03T23:00:03.203Z,6.5
2019-04-03T23:05:02.419Z,6.5
2019-04-03T23:10:02.865Z,6.5
2019-04-03T23:15:03.193Z,6.5
2019-04-03T23:20:02.623Z,6.5
2019-04-03T23:25:02.973Z,6.4
2019-04-03T23:30:03.311Z,6.4
2019-04-03T23:35:02.850Z,6.1
2019-04-03T23:40:03.278Z,6.1
2019-04-03T23:45:02.685Z,6.1
2019-04-03T23:50:03.007Z,6.1
2019-04-03T23:55:04.420Z,6.1
